Tiempo atmosférico en la estación meteorológica de Cáceres, Cáceres (405 m.)



Fecha
DESCASC
Temp. máxima en grados centígrados (hora)
DESCASC
Temp. mínima en grados centígrados (hora)
DESCASC
Temp. media en grados centígrados
DESCASC
Racha de viento máxima en m/sg (hora)
DESCASC
Velocidad máxima media en intervalos de 10 minutos(hora)
DESCASC
Precipitaciones diarias en mm
DESCASC
Precipitaciones de 00:00 a 06:00 en mm
DESCASC
Precipitaciones de 06:00 a 12:00 en mm
DESCASC
Precipitaciones de 12:00 a 18:00 en mm
DESCASC
Precipitaciones de 18:00 a 24:00 en mm
DESCASC
17-09-2020 28 (17:30) 17.8 (21:20) 22.9 13.61 (18:30) 6.94 (18:30) 0.8 0 0 0 0.8
16-09-2020 30.6 (15:50) 16.1 (08:30) 23.4 9.72 (13:50) 5.28 (13:50) 0 0 0 0 0
15-09-2020 29.9 (17:00) 18.2 (07:30) 24.1 8.33 (05:10) 5.83 (01:20) 0 0 0 0 0
14-09-2020 31.5 (16:10) 20.6 (00:00) 26.1 11.11 (02:30) 7.78 (02:30) 0 0 0 0 0
13-09-2020 35.6 (17:40) 22.4 (00:00) 29 11.11 (06:10) 7.78 (06:10) 0 0 0 0 0
12-09-2020 35.7 (17:10) 17.6 (00:00) 26.7 7.22 (14:00) 4.44 (19:10) 0 0 0 0 0
11-09-2020 34.6 (17:20) 16.8 (00:00) 25.7 5.28 (13:40) 3.33 (16:00) 0 0 0 0 0
10-09-2020 33.7 (18:40) 16.3 (00:00) 25 6.94 (16:00) 3.33 (14:40) 0 0 0 0 0
09-09-2020 32.5 (18:40) 15.7 (00:00) 24.1 6.39 (16:00) 3.89 (10:20) 0 0 0 0 0
08-09-2020 30.9 (18:50) 16.7 (00:00) 23.8 9.17 (12:40) 5.28 (11:50) 0 0 0 0 0
07-09-2020 32.9 (18:50) 19.3 (08:10) 26.1 9.17 (16:40) 4.72 (19:50) 0 0 0 0 0
06-09-2020 36 (18:50) 17.5 (00:00) 26.8 5.83 (17:30) 3.89 (00:40) 0 0 0 0 0
05-09-2020 36.3 (18:50) 17.2 (00:00) 26.8 6.11 (17:20) 3.89 (23:40) 0 0 0 0 0
04-09-2020 35.6 (18:50) 18.6 (00:00) 27.1 9.17 (06:40) 6.67 (06:40) 0 0 0 0 0
03-09-2020 35.7 (19:00) 15.6 (00:00) 25.7 6.94 (13:40) 3.89 (13:40) 0 0 0 0 0
02-09-2020 33.4 (18:50) 13 (00:00) 23.2 6.39 (16:40) 3.61 (11:10) 0 0 0 0 0
01-09-2020 31.7 (18:10) 16.8 (00:00) 24.3 7.5 (15:40) 4.17 (23:10) 0 0 0 0 0
31-08-2020 30.7 (19:00) 12.7 (00:00) 21.7 6.39 (19:00) 3.61 (19:00) 0 0 0 0 0
30-08-2020 26.9 (18:10) 11.8 (00:00) 19.3 8.06 (18:50) 4.72 (18:50) 0 0 0 0 0
29-08-2020 26.1 (18:50) 14.4 (00:00) 20.3 12.78 (11:10) 7.78 (11:00) 0 0 0 0 0
28-08-2020 31.2 (17:00) 20.1 (00:00) 25.7 12.78 (21:10) 6.94 (21:30) 0 0 0 0 0
27-08-2020 37.2 (17:50) 22.4 (00:00) 29.8 9.72 (22:10) 5.28 (21:00) 0 0 0 0 0
26-08-2020 38.7 (19:00) 19.5 (00:00) 29.1 9.72 (22:50) 5.83 (22:40) 0 0 0 0 0
25-08-2020 38.3 (19:00) 19.3 (00:00) 28.8 7.78 (00:20) 5.83 (00:40) 0 0 0 0 0
24-08-2020 37.2 (17:20) 17.9 (00:00) 27.6 6.94 (17:50) 4.72 (21:50) 0 0 0 0 0
23-08-2020 34.9 (17:40) 18.9 (00:00) 26.9 7.78 (18:00) 4.44 (18:00) 0 0 0 0 0
22-08-2020 33.8 (19:00) 16.4 (00:00) 25.1 7.5 (00:50) 3.89 (00:50) 0 0 0 0 0
21-08-2020 30.4 (18:40) 21.1 (00:00) 25.8 12.22 (17:30) 5 (20:10) 0 0 0 0 0

Gráficas

Temp. máximas Temp. mínimas Temp. medias Precipitaciones Rachas de viento máximas Velocidades máximas media en intervalos de 10 minutos

Datos horarios

Fecha y hora oficial Temperatura (ºC) Velocidad del viento (km/h) Dirección del viento Racha (km/h) Dirección de racha Precipitación (mm) Presión (hPa) Tendencia (hPa) Humedad (%)
2020-09-19 23:00:00 19.5 6 Oeste 14 Oeste 0 973.2 1.9 77
2020-09-19 22:00:00 19.3 8 Sudoeste 23 Oeste 0 972.4 1.3 79
2020-09-19 21:00:00 21.4 5 Sudoeste 13 Sur 0 971.6 0.7 59
2020-09-19 20:00:00 21.7 8 Oeste 21 Sudoeste 0 971.3 0.4 58
2020-09-19 19:00:00 22.2 12 Oeste 28 Sudoeste 0 971.1 -0.2 55
2020-09-19 18:00:00 22.3 15 Sudoeste 32 Sudoeste 0 970.9 -0.7 54
2020-09-19 17:00:00 22.6 14 Sudoeste 30 Sudoeste 0 970.9 -1.1 52
2020-09-19 16:00:00 22.2 19 Sudoeste 28 Sudoeste 0 971.3 -0.9 52
2020-09-19 15:00:00 22.7 14 Sudoeste 32 Sudoeste 0 971.6 -0.4 53
2020-09-19 14:00:00 22 19 Sudoeste 31 Sudoeste 0 972 0.3 57
2020-09-19 13:00:00 20.4 19 Sudoeste 33 Sudoeste 0 972.2 1.1 65
2020-09-19 12:00:00 20.1 18 Sudoeste 35 Oeste 0 972 1.6 69
2020-09-19 11:00:00 18.6 10 Oeste 33 Sudoeste 0 971.7 -- 78
2020-09-19 10:00:00 17.8 8 Sudoeste 40 Oeste 0 971.1 -- 84
2020-09-19 09:00:00 16.5 15 Sudoeste 43 Sur 0 970.4 -- 91
2020-09-19 08:00:00 16.4 12 Sur 29 Sur 0 969.5 -- 91
2020-09-19 07:00:00 16.6 15 Sudoeste 38 Sur 0 968.8 -- 90
2020-09-19 06:00:00 16.9 13 Sur 38 Oeste 0 968.6 -- 89
2020-09-19 05:00:00 17.1 9 Oeste 34 Oeste 0 968.2 -- 88
2020-09-19 04:00:00 17.2 10 Nordeste 43 Sur 0 968 -- 87
2020-09-19 03:00:00 17.3 19 Sur 59 Sur 0 967.9 -- 86
2020-09-19 02:00:00 17 18 Sur 54 Sur 0.2 967.5 -- 89
2020-09-19 01:00:00 17 22 Sur 43 Sur 1.2 967.4 -- 91
2020-09-19 00:00:00 17.4 22 Sur 44 Sudoeste 0 967.2 -- 87
2020-09-18 23:00:00 17.3 23 Sur 50 Sur 0 966.8 -- 91
2020-09-18 22:00:00 17.3 19 Sur 35 Sudoeste 3.6 966.3 -- 91
2020-09-18 21:00:00 17.6 12 Sur 39 Sur 0.8 965.6 -- 91
2020-09-18 20:00:00 16.9 13 Sudeste 39 Sur 4.4 965.1 -- 91
2020-09-18 19:00:00 19.3 16 Sudeste 31 Sudeste 0.6 964.8 -- 80
2020-09-18 18:00:00 20.1 17 Sudeste 42 Sur 0 964.7 -- 75
2020-09-18 17:00:00 21.3 24 Sudeste 45 Sur 0 964.7 -- 69
2020-09-18 16:00:00 19 18 Sudeste 33 Sudeste 0.6 965 -- 86
2020-09-18 15:00:00 17.2 21 Sudeste 47 Sudeste 8.2 965.8 -- 89
2020-09-18 14:00:00 21.7 23 Sudeste 38 Sur 0 966.4 -- 62
2020-09-18 13:00:00 22 19 Sudeste 34 Sudeste 0 966.2 -- 57
2020-09-18 12:00:00 21.7 15 Sudeste 34 Sudeste 0 966.2 -- 55
2020-09-18 11:00:00 20.1 18 Sudeste 27 Este 0 966.9 -- 74
2020-09-18 10:00:00 18.8 11 Sudeste 24 Sudeste 0 966.5 -- 80
2020-09-18 09:00:00 16.1 12 Sudeste 19 Sur 0 966.4 -- 92
2020-09-18 08:00:00 15.8 11 Sur 19 Sur 0 965.6 -- 91
2020-09-18 07:00:00 16 9 Sur 20 Sur 0 965.6 -- 92
2020-09-18 06:00:00 16 13 Sur 19 Sur 0 965.3 -- 93
2020-09-18 05:00:00 16.4 14 Sur 23 Sur 0 965.2 -- 91
2020-09-18 04:00:00 16.5 9 Sur 22 Sur 0.4 965.5 -- 92
2020-09-18 03:00:00 17.6 14 Sur 21 Sur 0.6 966 -- 86
2020-09-18 02:00:00 17.4 8 Sur 15 Sudeste 0 965.7 -- 92
2020-09-18 01:00:00 18 11 Sur 24 Sudoeste 0.6 966.2 -- 81
2020-09-18 00:00:00 18 9 Sur 18 Sur 0 966.5 -- 89
2020-09-17 23:00:00 18.3 4 Sur 9 Noroeste 0 966.6 -- 86
2020-09-17 22:00:00 17.9 3 Oeste 19 Oeste 0 966.5 -- 87
2020-09-17 21:00:00 17.9 15 Oeste 40 Sudoeste 0.6 965.7 -- 85
2020-09-17 20:00:00 21.4 7 Nordeste 24 Sudoeste 0 964 -- 66
2020-09-17 19:00:00 22 9 Oeste 49 Sur 0.2 964.5 -- 64
2020-09-17 18:00:00 26.6 13 Sur 40 Sudoeste 0 964.6 -- 41
2020-09-17 17:00:00 27.3 18 Sudeste 36 Sudeste 0 965.3 -- 44
2020-09-17 16:00:00 25.5 15 Sur 32 Sudeste 0 965.9 -- 53
2020-09-17 15:00:00 24.4 17 Sudeste 35 Sudeste 0 966.6 -- 58
2020-09-17 14:00:00 23.6 19 Sudeste 33 Sudeste 0 967.4 -- 61
2020-09-17 13:00:00 23.4 20 Sudeste 35 Sudeste 0 967.9 -- 58
2020-09-17 12:00:00 24.5 22 Sudeste 37 Sur 0 968 -- 51
2020-09-17 11:00:00 23.3 13 Sudeste 29 Sur 0 968 -- 61
2020-09-17 10:00:00 22.4 14 Sudeste 23 Sudeste 0 968.2 -- 64
2020-09-17 09:00:00 21.3 9 Sur 18 Sur 0 968.1 -- 67
2020-09-17 08:00:00 20.6 11 Sur 17 Sur 0 968.2 -- 68
2020-09-17 07:00:00 21 14 Sudeste 18 Sudeste 0 967.9 -- 65
2020-09-17 06:00:00 21.1 9 Sur 16 Sur 0 967.7 -- 66
2020-09-17 05:00:00 21.6 11 Sudeste 15 Sur 0 967.9 -- 63
2020-09-17 04:00:00 22.5 12 Sudeste 15 Sudeste 0 968.3 -- 58
2020-09-17 03:00:00 22.1 10 Sur 18 Sudoeste 0 969 -- 55
2020-09-17 02:00:00 22.6 14 Sudoeste 20 Sudoeste 0 969.3 -- 54
2020-09-17 01:00:00 22.4 10 Oeste 24 Oeste 0 969.3 -- 54
2020-09-17 00:00:00 23.1 12 Oeste 23 Sudoeste 0 969.4 -- 50
2020-09-16 23:00:00 24.7 15 Sudoeste 23 Sudoeste 0 969.5 -- 45
2020-09-16 22:00:00 25.9 12 Sur 20 Sur 0 969.3 -- 41
2020-09-16 21:00:00 26.5 6 Sur 12 Sur 0 969 -- 40
2020-09-16 20:00:00 27.7 5 Sur 15 Sudeste 0 968.8 -- 37
2020-09-16 19:00:00 28.5 9 Sudeste 18 Sudeste 0 969 -- 34
2020-09-16 18:00:00 29.6 13 Sudeste 23 Sudeste 0 969.3 -- 31
2020-09-16 17:00:00 29.9 10 Sur 24 Sur 0 969.7 -- 31
2020-09-16 16:00:00 30.1 10 Sudoeste 24 Sur 0 970.3 -- 30
2020-09-16 15:00:00 29.6 13 Sur 29 Sudoeste 0 970.8 -- 32
2020-09-16 14:00:00 29.6 12 Sudeste 35 Sur 0 971.6 -- 32
2020-09-16 13:00:00 28.9 12 Sur 24 Este 0 972.3 -- 33
2020-09-16 12:00:00 25.9 15 Este 20 Este 0 972.8 -- 39
2020-09-16 11:00:00 22.4 6 Este 10 Este 0 973.3 -- 52
2020-09-16 10:00:00 19.3 0 Calma 4 Oeste 0 973.6 -- 65
2020-09-16 09:00:00 16.7 2 Sudoeste 7 Sudoeste 0 973.4 -- 75
2020-09-16 08:00:00 16.4 6 Sudoeste 8 Sudoeste 0 973 -- 74
2020-09-16 07:00:00 16.8 4 Sudoeste 8 Sudoeste 0 973.4 -- 72
2020-09-16 06:00:00 16.5 4 Sudoeste 7 Sudoeste 0 973.7 -- 69
2020-09-16 05:00:00 17.5 2 Sudeste 13 Este 0 974 -- 64
2020-09-16 04:00:00 18.6 3 Sudoeste 6 Sudoeste 0 974.1 -- 60
2020-09-16 03:00:00 20.3 4 Oeste 14 Oeste 0 974.1 -- 55
2020-09-16 02:00:00 19.8 5 Sudoeste 13 Norte 0 974.4 -- 53
2020-09-16 01:00:00 21.1 8 Sudoeste 12 Sudoeste 0 974.4 -- 50
2020-09-16 00:00:00 21.7 10 Sudoeste 13 Sudoeste 0 974.3 -- 48
2020-09-15 23:00:00 21.8 10 Sudoeste 11 Sudoeste 0 974.3 -- 48
2020-09-15 22:00:00 22.3 9 Sudoeste 11 Sudoeste 0 973.9 -- 47
2020-09-15 21:00:00 24.5 6 Sudoeste 14 Sudoeste 0 973.5 -- 41
2020-09-15 20:00:00 28.1 5 Sudoeste 19 Oeste 0 973.5 -- 33
2020-09-15 19:00:00 29.2 14 Sur 23 Sudeste 0 973.5 -- 31
2020-09-15 18:00:00 29.5 8 Sudoeste 25 Sudoeste 0 973.6 -- 32
2020-09-15 17:00:00 29.9 12 Sur 27 Sudoeste 0 974 -- 30
2020-09-15 16:00:00 29.2 9 Sur 28 Sur 0 974.4 -- 31
2020-09-15 15:00:00 28.5 8 Sudoeste 24 Sur 0 975.2 -- 35
2020-09-15 14:00:00 27.7 9 Sur 22 Sudoeste 0 975.5 -- 39
2020-09-15 13:00:00 26.6 10 Sudeste 21 Sudeste 0 976.1 -- 44
2020-09-15 12:00:00 24.5 7 Este 15 Nordeste 0 976.7 -- 51
2020-09-15 11:00:00 22.6 3 Este 12 Sudoeste 0 976.5 -- 60
2020-09-15 10:00:00 20.1 11 Sudoeste 27 Sudoeste 0 976.3 -- 69
2020-09-15 09:00:00 19.1 13 Sudoeste 23 Oeste 0 976.1 -- 72
2020-09-15 08:00:00 18.3 13 Sudoeste 23 Sudoeste 0 975.4 -- 73
2020-09-15 07:00:00 18.5 12 Sudoeste 23 Sudoeste 0 975.1 -- 72
2020-09-15 06:00:00 19.3 16 Sudoeste 30 Sudoeste 0 974.9 -- 67
2020-09-15 05:00:00 19.5 20 Sudoeste 30 Oeste 0 975 -- 69
2020-09-15 04:00:00 20.3 15 Oeste 26 Oeste 0 975.1 -- 67
2020-09-15 03:00:00 21 17 Sudoeste 25 Oeste 0 975.3 -- 61
2020-09-15 02:00:00 21.9 14 Sudoeste 29 Oeste 0 974.9 -- 55
2020-09-15 01:00:00 23.2 17 Sudoeste 25 Oeste 0 974.6 -- 49
2020-09-15 00:00:00 24.1 10 Oeste 19 Sudoeste 0 974.3 -- 48
2020-09-14 23:00:00 24.7 10 Sudoeste 17 Sudoeste 0 973.6 -- 47
2020-09-14 22:00:00 26.3 8 Sudoeste 19 Sudoeste 0 972.9 -- 40
2020-09-14 21:00:00 27.4 8 Oeste 25 Sudoeste 0 972.2 -- 37
2020-09-14 20:00:00 28.5 17 Oeste 33 Sudoeste 0 971.9 -- 42
2020-09-14 19:00:00 30.3 13 Oeste 24 Sudoeste 0 971.9 -- 36
2020-09-14 18:00:00 31.5 10 Sudoeste 32 Sudoeste 0 972.1 -- 34
2020-09-14 17:00:00 31.4 11 Oeste 31 Sur 0 972.3 -- 33
2020-09-14 16:00:00 31 15 Sur 37 Sur 0 973.2 -- 32
2020-09-14 15:00:00 30.9 20 Sur 40 Sur 0 974 -- 32
2020-09-14 14:00:00 30.2 17 Sur 33 Sudoeste 0 974.4 -- 33
2020-09-14 13:00:00 29.4 10 Sur 23 Sudoeste 0 975 -- 35
2020-09-14 12:00:00 26.7 9 Este 16 Este 0 975.4 -- 46
2020-09-14 11:00:00 24.3 5 Nordeste 10 Nordeste 0 975.4 -- 58
2020-09-14 10:00:00 22.4 5 Norte 7 Norte 0 975.4 -- 66
2020-09-14 09:00:00 20.9 3 Sudeste 10 Sudoeste 0 974.8 -- 70
2020-09-14 08:00:00 20.6 6 Sudoeste 9 Sudoeste 0 974.4 -- 72
2020-09-14 07:00:00 21.3 5 Sudoeste 9 Sur 0 974.3 -- 69
2020-09-14 06:00:00 22.2 5 Sudeste 19 Sudoeste 0 974.2 -- 66
2020-09-14 05:00:00 22.6 8 Sudoeste 33 Sudoeste 0 974.2 -- 64
2020-09-14 04:00:00 23 26 Sudoeste 36 Sudoeste 0 974.2 -- 63
2020-09-14 03:00:00 23.6 26 Sudoeste 40 Sudoeste 0 974.5 -- 59
2020-09-14 02:00:00 24.2 26 Sudoeste 37 Sudoeste 0 974.5 -- 56
2020-09-14 01:00:00 25.1 21 Sudoeste 39 Sudoeste 0 974.4 -- 53
2020-09-14 00:00:00 26.5 27 Sudoeste 39 Sudoeste 0 973.9 -- 46
2020-09-13 23:00:00 28.5 21 Sudoeste 36 Sudoeste 0 973.5 -- 34
2020-09-13 22:00:00 30.4 19 Sur 26 Sur 0 972.8 -- 20
2020-09-13 21:00:00 30.9 15 Sur 23 Sur 0 972.1 -- 21
2020-09-13 20:00:00 33.8 13 Sudeste 29 Sudeste 0 971.9 -- 18
2020-09-13 19:00:00 34.4 14 Sudeste 29 Sur 0 972 -- 17
2020-09-13 18:00:00 34.9 16 Sudeste 29 Sudeste 0 972.2 -- 17
2020-09-13 17:00:00 34.4 15 Sudeste 35 Sudeste 0 972.7 -- 18
2020-09-13 16:00:00 34.8 20 Sudeste 38 Sudeste 0 973 -- 18
2020-09-13 15:00:00 33.8 18 Sudeste 32 Sur 0 973.7 -- 18
2020-09-13 14:00:00 32.8 14 Sudeste 27 Sudeste 0 974 -- 19
2020-09-13 13:00:00 31.7 17 Este 29 Este 0 974.4 -- 23
2020-09-13 12:00:00 29.6 17 Este 28 Este 0 974.6 -- 26
2020-09-13 11:00:00 27.6 15 Este 19 Sudeste 0 974.6 -- 28
2020-09-13 10:00:00 25.1 8 Sudeste 13 Sudeste 0 974.4 -- 33
2020-09-13 09:00:00 23.3 3 Este 14 Este 0 974 -- 35
2020-09-13 08:00:00 25 9 Sudeste 34 Sur 0 973.2 -- 32
2020-09-13 07:00:00 25.1 23 Sur 40 Sur 0 972.4 -- 34
2020-09-13 06:00:00 25.6 27 Sur 38 Sur 0 971.9 -- 32
2020-09-13 05:00:00 26.8 27 Sur 39 Sur 0 971.6 -- 29
2020-09-13 04:00:00 27.3 20 Sur 28 Sur 0 971.5 -- 26
2020-09-13 03:00:00 27.7 15 Sur 29 Sur 0 971.5 -- 26
2020-09-13 02:00:00 27.1 3 Sudeste 10 Sudeste 0 971.6 -- 26
2020-09-13 01:00:00 26.2 8 Sudeste 10 Sudeste 0 971.6 -- 28
2020-09-13 00:00:00 25 6 Sur 8 Sudeste 0 971.6 -- 32
2020-09-12 23:00:00 26.2 6 Sudoeste 8 Sudoeste 0 971.5 -- 30
2020-09-12 22:00:00 26.7 6 Sudoeste 8 Sudoeste 0 970.9 -- 29
2020-09-12 21:00:00 28.6 6 Sudoeste 16 Sudeste 0 970.4 -- 26
2020-09-12 20:00:00 32.8 11 Sur 24 Sudeste 0 970.3 -- 19
2020-09-12 19:00:00 34 14 Sudeste 23 Sur 0 970 -- 18
2020-09-12 18:00:00 35.2 6 Sur 24 Este 0 969.9 -- 17
2020-09-12 17:00:00 35.5 7 Sudeste 26 Sudeste 0 970.1 -- 17
2020-09-12 16:00:00 34.7 13 Sudeste 22 Sudeste 0 970.4 -- 17
2020-09-12 15:00:00 34.8 11 Sudeste 24 Este 0 970.7 -- 17
2020-09-12 14:00:00 33.9 13 Este 26 Este 0 970.9 -- 19
2020-09-12 13:00:00 32.8 11 Este 23 Este 0 971.2 -- 18
2020-09-12 12:00:00 30.6 16 Este 23 Este 0 971.2 -- 22
2020-09-12 11:00:00 28.3 12 Este 20 Este 0 971 -- 23
2020-09-12 10:00:00 24.8 3 Nordeste 9 Sudeste 0 970.5 -- 29
2020-09-12 09:00:00 21.9 4 Sudeste 9 Sur 0 970.2 -- 33
2020-09-12 08:00:00 18.2 5 Sur 8 Sur 0 969.6 -- 39
2020-09-12 07:00:00 19 4 Sudoeste 7 Sudeste 0 969 -- 41
2020-09-12 06:00:00 19.2 5 Sudeste 8 Sudeste 0 968.8 -- 39
2020-09-12 05:00:00 19.2 6 Oeste 10 Sudoeste 0 968.7 -- 39
2020-09-12 04:00:00 21.7 8 Sudoeste 11 Sudoeste 0 968.5 -- 34
2020-09-12 03:00:00 21.8 5 Sudoeste 9 Este 0 968.7 -- 34
2020-09-12 02:00:00 22.6 4 Sudeste 9 Sudoeste 0 968.5 -- 32
2020-09-12 01:00:00 23.3 6 Sudoeste 9 Sudoeste 0 968.4 -- 31
2020-09-12 00:00:00 23.9 5 Sur 8 Sudoeste 0 968.4 -- 31
2020-09-11 23:00:00 24.2 7 Sudoeste 9 Sudoeste 0 968.2 -- 30
2020-09-11 22:00:00 24.9 7 Sudoeste 10 Sur 0 967.9 -- 29
2020-09-11 21:00:00 26.6 6 Sudoeste 9 Oeste 0 967.5 -- 24
2020-09-11 20:00:00 32.9 0 Calma 10 Norte 0 967.1 -- 18
2020-09-11 19:00:00 33.9 4 Norte 17 Norte 0 967.2 -- 15
2020-09-11 18:00:00 34 5 Sudoeste 17 Noroeste 0 967.3 -- 16
2020-09-11 17:00:00 34.1 10 Oeste 19 Sudoeste 0 967.7 -- 15
2020-09-11 16:00:00 33.5 12 Noroeste 19 Norte 0 968.2 -- 16
2020-09-11 15:00:00 33.6 9 Nordeste 18 Nordeste 0 968.6 -- 16
2020-09-11 14:00:00 33.1 6 Sudeste 19 Este 0 969 -- 17
2020-09-11 13:00:00 31 5 Este 16 Este 0 969.7 -- 19
2020-09-11 12:00:00 28.1 8 Nordeste 15 Este 0 969.9 -- 22
2020-09-11 11:00:00 24.4 3 Este 8 Nordeste 0 970 -- 27
2020-09-11 10:00:00 22.2 2 Este 6 Este 0 969.5 -- 33
2020-09-11 09:00:00 19 0 Calma 5 Sur 0 969.2 -- 40
2020-09-11 08:00:00 16.9 3 Oeste 10 Sudoeste 0 968.9 -- 47
2020-09-11 07:00:00 17.3 6 Oeste 11 Norte 0 968.8 -- 46
2020-09-11 06:00:00 18.5 3 Sur 5 Sudeste 0 968.7 -- 43
2020-09-11 05:00:00 18.9 3 Sur 6 Sudeste 0 969 -- 38
2020-09-11 04:00:00 20.1 2 Este 12 Sudoeste 0 969.1 -- 35
2020-09-11 03:00:00 21.5 3 Sur 14 Sudoeste 0 969.3 -- 31
2020-09-11 02:00:00 22.6 9 Sudoeste 13 Sudoeste 0 969.6 -- 28
2020-09-11 01:00:00 21.7 10 Sudoeste 17 Norte 0 970 -- 30
2020-09-11 00:00:00 24.5 5 Sudoeste 11 Sudoeste 0 969.9 -- 25
2020-09-10 23:00:00 24.4 6 Sudoeste 10 Sudoeste 0 969.9 -- 25
2020-09-10 22:00:00 24.3 8 Sudoeste 12 Sudoeste 0 969.8 -- 26
2020-09-10 21:00:00 25.7 9 Sudoeste 11 Sudoeste 0 969.5 -- 24
2020-09-10 20:00:00 31.7 5 Oeste 14 Norte 0 969.7 -- 18
2020-09-10 19:00:00 32.6 11 Norte 20 Norte 0 969.9 -- 17
2020-09-10 18:00:00 33.3 4 Norte 24 Noroeste 0 970.3 -- 16
2020-09-10 17:00:00 33 9 Nordeste 23 Norte 0 970.9 -- 16
2020-09-10 16:00:00 32.6 12 Noroeste 25 Noroeste 0 971.7 -- 16
2020-09-10 15:00:00 32 5 Nordeste 19 Norte 0 972.3 -- 18
2020-09-10 14:00:00 31.1 6 Norte 15 Norte 0 973 -- 20
2020-09-10 13:00:00 29.5 4 Nordeste 14 Nordeste 0 973.8 -- 23
2020-09-10 12:00:00 27.1 6 Este 11 Este 0 974.3 -- 27
2020-09-10 11:00:00 24.7 5 Este 11 Sudeste 0 974.3 -- 30
2020-09-10 10:00:00 23.3 5 Este 9 Este 0 974.1 -- 31
2020-09-10 09:00:00 18.3 4 Sur 8 Norte 0 973.8 -- 41
2020-09-10 08:00:00 16.6 0 Calma 8 Sudoeste 0 973.2 -- 45
2020-09-10 07:00:00 17 3 Sur 4 Sur 0 972.9 -- 38
2020-09-10 06:00:00 17.6 0 Calma 6 Sudoeste 0 972.8 -- 40
2020-09-10 05:00:00 20 7 Sudoeste 9 Sudoeste 0 973.1 -- 33
2020-09-10 04:00:00 19.4 6 Sudoeste 10 Sudoeste 0 973.5 -- 33
2020-09-10 03:00:00 20.5 6 Sudoeste 9 Sudoeste 0 973.8 -- 30
2020-09-10 02:00:00 20.9 5 Sudoeste 8 Sudoeste 0 974 -- 30
2020-09-10 01:00:00 20.9 4 Sudoeste 10 Sudoeste 0 974.1 -- 33
2020-09-10 00:00:00 22.5 6 Sudoeste 9 Sudoeste 0 974 -- 31
2020-09-09 23:00:00 22.8 6 Sudoeste 9 Sudoeste 0 974 -- 30
2020-09-09 22:00:00 23.7 6 Sudoeste 9 Sudoeste 0 973.7 -- 27
2020-09-09 21:00:00 25.4 6 Sudoeste 9 Sudoeste 0 973.2 -- 25
2020-09-09 20:00:00 30.6 6 Noroeste 14 Norte 0 973.1 -- 17
2020-09-09 19:00:00 31.4 7 Norte 20 Nordeste 0 973.1 -- 16
2020-09-09 18:00:00 31.3 7 Nordeste 22 Norte 0 973.4 -- 17
2020-09-09 17:00:00 31.2 6 Noroeste 21 Noroeste 0 973.6 -- 18
2020-09-09 16:00:00 31 11 Norte 23 Norte 0 973.9 -- 19
2020-09-09 15:00:00 30.2 11 Norte 21 Oeste 0 974.4 -- 22
2020-09-09 14:00:00 29.4 7 Sur 19 Nordeste 0 975 -- 24
2020-09-09 13:00:00 27.9 7 Este 22 Este 0 975.7 -- 28
2020-09-09 12:00:00 26.9 11 Este 22 Este 0 975.9 -- 31
2020-09-09 11:00:00 25.2 11 Este 19 Este 0 975.9 -- 35
2020-09-09 10:00:00 23.2 10 Este 14 Este 0 975.5 -- 36
2020-09-09 09:00:00 20.4 8 Sudeste 13 Sudeste 0 975.1 -- 39
2020-09-09 08:00:00 17.9 6 Sudeste 12 Sudeste 0 974.5 -- 42
2020-09-09 07:00:00 16.2 5 Sur 8 Sur 0 974.1 -- 47
2020-09-09 06:00:00 16.2 3 Sudoeste 5 Sudoeste 0 973.7 -- 45
2020-09-09 05:00:00 16.8 2 Sur 5 Sur 0 973.7 -- 44
2020-09-09 04:00:00 18.1 4 Sur 5 Sur 0 973.8 -- 42
2020-09-09 03:00:00 19.9 4 Sur 11 Sudeste 0 974 -- 36
2020-09-09 02:00:00 20.9 8 Sudeste 10 Sudeste 0 974.1 -- 34
2020-09-09 01:00:00 22.8 8 Sudeste 14 Sudeste 0 974.2 -- 31
2020-09-09 00:00:00 22.9 6 Sudeste 10 Sudeste 0 974.4 -- 32
2020-09-08 23:00:00 22.9 5 Sudeste 9 Sur 0 974.3 -- 32
2020-09-08 22:00:00 23.8 5 Este 10 Este 0 973.8 -- 26
2020-09-08 21:00:00 25.2 3 Sur 17 Nordeste 0 973.3 -- 25
2020-09-08 20:00:00 28.4 11 Nordeste 22 Nordeste 0 972.9 -- 22
2020-09-08 19:00:00 29.8 9 Nordeste 22 Este 0 972.8 -- 21
2020-09-08 18:00:00 29.8 12 Este 23 Este 0 973 -- 21
2020-09-08 17:00:00 29.5 9 Este 24 Norte 0 973.3 -- 17
2020-09-08 16:00:00 28.6 12 Nordeste 23 Este 0 973.9 -- 22
2020-09-08 15:00:00 27.8 11 Este 33 Norte 0 974.4 -- 25
2020-09-08 14:00:00 26.9 15 Este 30 Nordeste 0 974.8 -- 27
2020-09-08 13:00:00 25.9 17 Este 33 Este 0 975 -- 30
2020-09-08 12:00:00 23.7 15 Nordeste 29 Este 0 975.5 -- 34
2020-09-08 11:00:00 21.7 16 Este 25 Nordeste 0 975.7 -- 36
2020-09-08 10:00:00 19.7 12 Este 24 Este 0 975.4 -- 37
2020-09-08 09:00:00 18 9 Este 17 Este 0 975.3 -- 39
2020-09-08 08:00:00 16.8 9 Este 27 Este 0 974.4 -- 41
2020-09-08 07:00:00 17.4 6 Este 13 Este 0 973.9 -- 34
2020-09-08 06:00:00 18.2 4 Este 10 Este 0 973.7 -- 32
2020-09-08 05:00:00 18 3 Nordeste 12 Nordeste 0 973.6 -- 36
2020-09-08 04:00:00 17.1 4 Sudoeste 5 Sudoeste 0 973.6 -- 38
2020-09-08 03:00:00 16.9 5 Oeste 6 Oeste 0 973.5 -- 40
2020-09-08 02:00:00 18.4 4 Sudoeste 8 Sudeste 0 973.2 -- 37
2020-09-08 01:00:00 19.2 4 Sudeste 9 Este 0 973.1 -- 35
2020-09-08 00:00:00 20.6 7 Sudoeste 9 Sudoeste 0 972.7 -- 32
2020-09-07 23:00:00 22.8 6 Sudoeste 10 Sudoeste 0 972.4 -- 27
2020-09-07 22:00:00 24.8 4 Noroeste 12 Norte 0 971.8 -- 23
2020-09-07 21:00:00 27.8 4 Noroeste 22 Norte 0 970.9 -- 24
2020-09-07 20:00:00 30.7 15 Norte 27 Norte 0 970.6 -- 19
2020-09-07 19:00:00 32.2 13 Norte 24 Nordeste 0 970.6 -- 18
2020-09-07 18:00:00 32.2 12 Norte 24 Norte 0 970.6 -- 19
2020-09-07 17:00:00 31.9 11 Norte 33 Nordeste 0 970.7 -- 20
2020-09-07 16:00:00 31.8 13 Nordeste 30 Nordeste 0 971.2 -- 20
2020-09-07 15:00:00 30.9 14 Norte 28 Norte 0 971.6 -- 22
2020-09-07 14:00:00 30.1 13 Norte 26 Norte 0 972 -- 24
2020-09-07 13:00:00 28.8 15 Norte 26 Norte 0 972.2 -- 26
2020-09-07 12:00:00 27.6 10 Nordeste 19 Norte 0 972.2 -- 30
2020-09-07 11:00:00 24.9 11 Norte 19 Norte 0 972.2 -- 34
2020-09-07 10:00:00 22.2 10 Noroeste 17 Norte 0 971.9 -- 41
2020-09-07 09:00:00 20.4 7 Noroeste 12 Noroeste 0 971.3 -- 47
2020-09-07 08:00:00 19.4 5 Oeste 8 Oeste 0 970.7 -- 50
2020-09-07 07:00:00 20.4 4 Sudoeste 9 Noroeste 0 970.4 -- 49
2020-09-07 06:00:00 21.8 6 Oeste 10 Noroeste 0 970 -- 45
2020-09-07 05:00:00 21.6 7 Oeste 10 Oeste 0 969.8 -- 44
2020-09-07 04:00:00 22 5 Sudoeste 7 Sudoeste 0 969.9 -- 43
2020-09-07 03:00:00 22.7 4 Sudoeste 8 Sudoeste 0 969.9 -- 40
2020-09-07 02:00:00 24 4 Sudoeste 10 Oeste 0 970.1 -- 37
2020-09-07 01:00:00 25.7 7 Sudoeste 10 Oeste 0 970 -- 32
2020-09-07 00:00:00 25.7 6 Sudoeste 12 Norte 0 969.5 -- 30
2020-09-06 23:00:00 27 7 Sudoeste 10 Oeste 0 969.2 -- 27
2020-09-06 22:00:00 27.7 7 Sudoeste 10 Sudoeste 0 968.9 -- 27
2020-09-06 21:00:00 29.7 6 Sudoeste 14 Noroeste 0 968.4 -- 25
2020-09-06 20:00:00 34.2 6 Noroeste 17 Noroeste 0 968.3 -- 19
2020-09-06 19:00:00 35.2 6 Noroeste 20 Noroeste 0 968.3 -- 17
2020-09-06 18:00:00 35.4 12 Noroeste 21 Noroeste 0 968.5 -- 16
2020-09-06 17:00:00 35.5 10 Nordeste 20 Nordeste 0 968.8 -- 15
2020-09-06 16:00:00 34.8 8 Norte 17 Noroeste 0 969.4 -- 14
2020-09-06 15:00:00 34 7 Nordeste 15 Norte 0 970 -- 18
2020-09-06 14:00:00 32.9 6 Este 14 Este 0 970.4 -- 19
2020-09-06 13:00:00 31.1 6 Nordeste 14 Nordeste 0 970.9 -- 21
2020-09-06 12:00:00 28.8 5 Norte 12 Este 0 970.9 -- 24
2020-09-06 11:00:00 25.8 5 Este 12 Este 0 970.9 -- 29
2020-09-06 10:00:00 23.5 5 Nordeste 9 Nordeste 0 970.6 -- 34
2020-09-06 09:00:00 19.4 0 Calma 5 Sudoeste 0 970.4 -- 47
2020-09-06 08:00:00 18 3 Sudoeste 6 Oeste 0 969.8 -- 45
2020-09-06 07:00:00 19.1 3 Oeste 9 Este 0 969.3 -- 44
2020-09-06 06:00:00 19.8 4 Sur 9 Nordeste 0 969.5 -- 41
2020-09-06 05:00:00 21.5 5 Sudoeste 9 Sudoeste 0 969 -- 37
2020-09-06 04:00:00 24.1 7 Sudoeste 10 Sudoeste 0 969.4 -- 32
2020-09-06 03:00:00 25.1 4 Sur 18 Oeste 0 969.7 -- 30
2020-09-06 02:00:00 27.5 12 Sudoeste 18 Sudoeste 0 969.8 -- 25
2020-09-06 01:00:00 27.6 13 Sudoeste 17 Sudoeste 0 970.1 -- 25
2020-09-06 00:00:00 28.3 14 Sudoeste 19 Sudoeste 0 970 -- 24
2020-09-05 23:00:00 26.9 10 Sudoeste 18 Sudoeste 0 970.1 -- 26
2020-09-05 22:00:00 26.6 8 Sudoeste 10 Sudoeste 0 969.8 -- 26
2020-09-05 21:00:00 28.8 6 Sudoeste 8 Sudoeste 0 969.4 -- 24
2020-09-05 20:00:00 34.4 4 Oeste 10 Noroeste 0 969.3 -- 18
2020-09-05 19:00:00 35.6 5 Sudoeste 13 Norte 0 969.6 -- 17
2020-09-05 18:00:00 35.2 12 Norte 22 Nordeste 0 970.2 -- 17
2020-09-05 17:00:00 34.9 9 Nordeste 17 Norte 0 970.7 -- 16
2020-09-05 16:00:00 34.4 9 Noroeste 19 Noroeste 0 971.6 -- 18
2020-09-05 15:00:00 34.4 6 Sudeste 18 Nordeste 0 972.4 -- 17
2020-09-05 14:00:00 33.1 5 Norte 19 Nordeste 0 972.9 -- 18
2020-09-05 13:00:00 31.6 7 Este 15 Este 0 973.5 -- 19
2020-09-05 12:00:00 29.5 6 Nordeste 16 Este 0 973.7 -- 21
2020-09-05 11:00:00 27.1 4 Nordeste 8 Norte 0 973.8 -- 26
2020-09-05 10:00:00 25.9 5 Este 8 Este 0 973.7 -- 26
2020-09-05 09:00:00 20.3 3 Sudeste 6 Sudeste 0 973.7 -- 44
2020-09-05 08:00:00 17.4 3 Sudoeste 5 Noroeste 0 973.1 -- 51
2020-09-05 07:00:00 18.7 3 Sudoeste 6 Sudoeste 0 972.8 -- 46
2020-09-05 06:00:00 19.4 4 Sur 7 Sudoeste 0 972.7 -- 45
2020-09-05 05:00:00 21.1 6 Sudoeste 10 Sudoeste 0 972.9 -- 41
2020-09-05 04:00:00 21.8 6 Sudoeste 8 Sudoeste 0 973.3 -- 40
2020-09-05 03:00:00 22.6 5 Sudoeste 8 Sudoeste 0 973.5 -- 37
2020-09-05 02:00:00 23.3 5 Sudoeste 8 Sudoeste 0 973.9 -- 36
2020-09-05 01:00:00 26.1 3 Sudoeste 9 Sudoeste 0 973.9 -- 30
2020-09-05 00:00:00 25 6 Sudoeste 12 Sudoeste 0 974 -- 32
2020-09-04 23:00:00 25.6 7 Sudoeste 12 Sudoeste 0 974 -- 31
2020-09-04 22:00:00 26.5 9 Sudoeste 11 Sudoeste 0 973.7 -- 29
2020-09-04 21:00:00 28.9 5 Sudoeste 9 Nordeste 0 973.2 -- 26
2020-09-04 20:00:00 34.1 6 Nordeste 13 Este 0 973.1 -- 18
2020-09-04 19:00:00 34.7 8 Este 16 Norte 0 973.3 -- 18
2020-09-04 18:00:00 34.7 8 Nordeste 19 Este 0 973.5 -- 18
2020-09-04 17:00:00 34.2 4 Noroeste 19 Norte 0 973.9 -- 19
2020-09-04 16:00:00 33.9 8 Este 18 Este 0 974.6 -- 20
2020-09-04 15:00:00 33.8 8 Sudeste 19 Nordeste 0 975.5 -- 20
2020-09-04 14:00:00 32.1 7 Este 26 Nordeste 0 976.2 -- 22
2020-09-04 13:00:00 31 5 Sudeste 19 Sudeste 0 976.8 -- 24
2020-09-04 12:00:00 29.5 6 Nordeste 13 Nordeste 0 977.1 -- 27
2020-09-04 11:00:00 27.7 4 Norte 13 Sudoeste 0 977 -- 30
2020-09-04 10:00:00 24.5 2 Nordeste 8 Norte 0 976.6 -- 36
2020-09-04 09:00:00 20 2 Oeste 7 Norte 0 976.4 -- 45
2020-09-04 08:00:00 18.8 4 Norte 19 Sur 0 975.6 -- 42
2020-09-04 07:00:00 23 17 Sur 33 Sur 0 974.7 -- 38
2020-09-04 06:00:00 23 6 Sudeste 23 Sur 0 974.3 -- 38
2020-09-04 05:00:00 22.6 7 Este 13 Sudoeste 0 974.4 -- 33
2020-09-04 04:00:00 25.6 10 Sudoeste 30 Sur 0 974.2 -- 31
2020-09-04 03:00:00 25.9 17 Sur 31 Sur 0 974.3 -- 25
2020-09-04 02:00:00 22.5 6 Sudoeste 8 Sudoeste 0 974.5 -- 31
2020-09-04 01:00:00 22.8 5 Sur 8 Sur 0 974.6 -- 30
2020-09-04 00:00:00 23.1 5 Sur 7 Nordeste 0 974.5 -- 30
2020-09-03 23:00:00 26.4 9 Sur 17 Sur 0 974.2 -- 24
2020-09-03 22:00:00 27.4 10 Sur 17 Sur 0 973.8 -- 23
2020-09-03 21:00:00 27.9 6 Sudoeste 9 Nordeste 0 973.1 -- 22
2020-09-03 20:00:00 33.7 7 Norte 14 Norte 0 972.9 -- 15
2020-09-03 19:00:00 34.9 5 Noroeste 19 Nordeste 0 972.8 -- 14
2020-09-03 18:00:00 34.5 11 Nordeste 19 Este 0 972.7 -- 14
2020-09-03 17:00:00 34.3 12 Este 23 Este 0 973.1 -- 14
2020-09-03 16:00:00 34.3 6 Nordeste 23 Nordeste 0 973.5 -- 14
2020-09-03 15:00:00 33.9 7 Este 23 Este 0 974.1 -- 15
2020-09-03 14:00:00 32.7 9 Este 25 Sudeste 0 974.4 -- 17
2020-09-03 13:00:00 31.4 10 Este 21 Este 0 974.6 -- 18
2020-09-03 12:00:00 29.4 9 Este 14 Nordeste 0 974.7 -- 19
2020-09-03 11:00:00 26.1 5 Nordeste 12 Este 0 974.5 -- 23
2020-09-03 10:00:00 23.2 4 Nordeste 6 Este 0 974.2 -- 28
2020-09-03 09:00:00 19.3 0 Calma 8 Oeste 0 973.6 -- 40
2020-09-03 08:00:00 15.8 2 Oeste 8 Sudoeste 0 973.2 -- 42
2020-09-03 07:00:00 16.5 3 Sudoeste 5 Oeste 0 972.5 -- 41
2020-09-03 06:00:00 16.8 4 Sudoeste 6 Sudoeste 0 972.2 -- 41
2020-09-03 05:00:00 17.3 3 Oeste 6 Oeste 0 972.2 -- 38
2020-09-03 04:00:00 19.2 2 Este 7 Este 0 971.9 -- 32
2020-09-03 03:00:00 20.8 5 Sur 8 Sudoeste 0 971.6 -- 30
2020-09-03 02:00:00 19.8 5 Sur 17 Noroeste 0 971.7 -- 29
2020-09-03 01:00:00 21 5 Sudoeste 10 Este 0 971.6 -- 28
2020-09-03 00:00:00 22 7 Sudoeste 9 Sudoeste 0 971.2 -- 26
2020-09-02 23:00:00 22.4 6 Sudoeste 9 Sudoeste 0 971.2 -- 25
2020-09-02 22:00:00 23.9 6 Sudoeste 8 Sudoeste 0 970.7 -- 22
2020-09-02 21:00:00 26.7 5 Sudoeste 13 Noroeste 0 970 -- 20
2020-09-02 20:00:00 31.8 9 Norte 19 Norte 0 969.5 -- 14
2020-09-02 19:00:00 32.7 6 Norte 19 Noroeste 0 969.3 -- 13
2020-09-02 18:00:00 32.7 8 Noroeste 19 Norte 0 969.1 -- 13
2020-09-02 17:00:00 32.7 5 Nordeste 23 Este 0 969.2 -- 12
2020-09-02 16:00:00 32.3 8 Este 20 Nordeste 0 969.3 -- 13
2020-09-02 15:00:00 31.9 9 Sudoeste 19 Nordeste 0 969.6 -- 14
2020-09-02 14:00:00 30.6 6 Este 19 Este 0 970 -- 15
2020-09-02 13:00:00 28.4 9 Este 19 Este 0 970.1 -- 19
2020-09-02 12:00:00 26 11 Nordeste 20 Este 0 970.4 -- 22
2020-09-02 11:00:00 23.6 11 Este 19 Este 0 970 -- 25
2020-09-02 10:00:00 20.8 5 Este 9 Este 0 969.4 -- 31
2020-09-02 09:00:00 17.5 5 Sudeste 8 Sudeste 0 968.8 -- 45
2020-09-02 08:00:00 13.1 0 Calma 8 Norte 0 968.6 -- 66
2020-09-02 07:00:00 15 5 Sur 8 Sudeste 0 968 -- 59
2020-09-02 06:00:00 16.4 4 Sudoeste 6 Sudoeste 0 967.6 -- 53
2020-09-02 05:00:00 18 4 Sudoeste 9 Sudoeste 0 967.1 -- 47
2020-09-02 04:00:00 18.5 7 Sudoeste 10 Sudoeste 0 967.2 -- 49
2020-09-02 03:00:00 19.4 6 Oeste 10 Oeste 0 967.2 -- 45
2020-09-02 02:00:00 21.5 6 Oeste 16 Oeste 0 967.1 -- 38
2020-09-02 01:00:00 22.1 8 Oeste 19 Sudoeste 0 967.1 -- 39
2020-09-02 00:00:00 23.3 10 Oeste 27 Oeste 0 966.9 -- 37
2020-09-01 23:00:00 24.1 14 Oeste 26 Oeste 0 966.6 -- 33
2020-09-01 22:00:00 22.2 7 Sudoeste 8 Sudoeste 0 966.3 -- 23
2020-09-01 21:00:00 26.4 4 Sudoeste 16 Norte 0 965.8 -- 18
2020-09-01 20:00:00 29.9 10 Norte 19 Norte 0 965.5 -- 13
2020-09-01 19:00:00 31.2 11 Noroeste 23 Noroeste 0 965.6 -- 12
2020-09-01 18:00:00 31.4 8 Oeste 23 Oeste 0 965.7 -- 10
2020-09-01 17:00:00 30.7 10 Oeste 23 Oeste 0 966.1 -- 9
2020-09-01 16:00:00 30.7 11 Oeste 27 Noroeste 0 966.6 -- 11
2020-09-01 15:00:00 29.9 10 Noroeste 21 Noroeste 0 967.3 -- 14
2020-09-01 14:00:00 28.6 12 Oeste 22 Oeste 0 967.9 -- 14
2020-09-01 13:00:00 28.5 7 Nordeste 12 Nordeste 0 968.3 -- 17
2020-09-01 12:00:00 26 5 Norte 9 Norte 0 968.9 -- 20
2020-09-01 11:00:00 23.2 4 Norte 8 Norte 0 969 -- 24
2020-09-01 10:00:00 19.9 3 Nordeste 7 Noroeste 0 969 -- 31
2020-09-01 09:00:00 18.7 3 Noroeste 10 Oeste 0 969 -- 34
2020-09-01 08:00:00 17.4 5 Sudoeste 8 Sur 0 968.7 -- 33
2020-09-01 07:00:00 17 4 Oeste 6 Sudeste 0 968.9 -- 38
2020-09-01 06:00:00 17.1 2 Oeste 5 Oeste 0 969.3 -- 35
2020-09-01 05:00:00 18 3 Noroeste 8 Oeste 0 969.5 -- 32
2020-09-01 04:00:00 17.9 2 Sur 5 Oeste 0 969.5 -- 33
2020-09-01 03:00:00 17.6 3 Oeste 7 Oeste 0 969.9 -- 33
2020-09-01 02:00:00 19.3 6 Sudoeste 9 Sudoeste 0 970.2 -- 29
2020-09-01 01:00:00 18.8 5 Sur 8 Sudoeste 0 970.4 -- 29
2020-09-01 00:00:00 19.2 6 Sur 8 Sudoeste 0 970.5 -- 28
2020-08-31 23:00:00 19.4 6 Sur 8 Sudoeste 0 970.5 -- 30
2020-08-31 22:00:00 21.1 5 Sudoeste 8 Norte 0 970.5 -- 27
2020-08-31 21:00:00 25.5 4 Norte 16 Norte 0 969.9 -- 19
2020-08-31 20:00:00 28.4 11 Norte 23 Nordeste 0 970 -- 15
2020-08-31 19:00:00 29.5 13 Noroeste 23 Noroeste 0 970.2 -- 14
2020-08-31 18:00:00 29.6 6 Este 18 Norte 0 970.5 -- 13
2020-08-31 17:00:00 29.4 9 Norte 20 Nordeste 0 970.9 -- 15
2020-08-31 16:00:00 28.8 6 Oeste 23 Norte 0 971.6 -- 16
2020-08-31 15:00:00 27.9 9 Noroeste 22 Este 0 972.4 -- 17
2020-08-31 14:00:00 27.4 8 Norte 21 Este 0 973 -- 17
2020-08-31 13:00:00 25.5 8 Norte 19 Este 0 973.4 -- 21
2020-08-31 12:00:00 23.5 9 Este 22 Este 0 973.7 -- 24
2020-08-31 11:00:00 21.1 10 Este 19 Este 0 973.8 -- 29
2020-08-31 10:00:00 18.4 7 Este 12 Este 0 973.7 -- 35
2020-08-31 09:00:00 16.1 2 Este 10 Sudeste 0 973.4 -- 41
2020-08-31 08:00:00 13.7 9 Sudeste 11 Sudeste 0 972.9 -- 44
2020-08-31 07:00:00 13.8 7 Sudeste 10 Sudeste 0 972.2 -- 42
2020-08-31 06:00:00 12.8 5 Sudeste 9 Sudeste 0 971.9 -- 45
2020-08-31 05:00:00 12.8 5 Sudoeste 8 Sudoeste 0 971.8 -- 46
2020-08-31 04:00:00 13.9 5 Sudoeste 10 Sudoeste 0 972 -- 44
2020-08-31 03:00:00 14.4 4 Sudoeste 6 Sudoeste 0 972 -- 42
2020-08-31 02:00:00 14.9 5 Sudoeste 6 Sudoeste 0 971.9 -- 41
2020-08-31 01:00:00 15.9 5 Sudoeste 7 Sudoeste 0 971.6 -- 39
2020-08-31 00:00:00 17.6 3 Sur 8 Sudoeste 0 971.4 -- 36
2020-08-30 23:00:00 17.6 4 Sudoeste 8 Sudoeste 0 970.8 -- 35
2020-08-30 22:00:00 19.1 6 Sudoeste 8 Sudoeste 0 969.9 -- 33
2020-08-30 21:00:00 23.5 4 Noroeste 18 Norte 0 969.2 -- 24
2020-08-30 20:00:00 25.4 13 Noroeste 23 Noroeste 0 968.8 -- 20
2020-08-30 19:00:00 26.4 15 Norte 29 Norte 0 968.5 -- 17
2020-08-30 18:00:00 26.6 6 Oeste 24 Noroeste 0 968.3 -- 20
2020-08-30 17:00:00 26.2 9 Norte 26 Noroeste 0 968.5 -- 20
2020-08-30 16:00:00 25.6 6 Noroeste 23 Norte 0 968.9 -- 23
2020-08-30 15:00:00 24.9 14 Norte 27 Nordeste 0 969.2 -- 26
2020-08-30 14:00:00 24.8 7 Este 23 Este 0 969.5 -- 27
2020-08-30 13:00:00 23.8 8 Nordeste 20 Norte 0 969.7 -- 29
2020-08-30 12:00:00 22.4 10 Este 20 Este 0 969.8 -- 33
2020-08-30 11:00:00 20 6 Nordeste 13 Este 0 969.6 -- 39
2020-08-30 10:00:00 17.1 6 Nordeste 13 Nordeste 0 969.5 -- 47
2020-08-30 09:00:00 15.1 6 Nordeste 14 Nordeste 0 968.8 -- 53
2020-08-30 08:00:00 11.9 4 Sudoeste 7 Sudoeste 0 968.3 -- 65
2020-08-30 07:00:00 12.7 5 Sudoeste 7 Oeste 0 968 -- 61
2020-08-30 06:00:00 14.1 5 Sudoeste 8 Sudoeste 0 967.7 -- 55
2020-08-30 05:00:00 14.9 5 Sudoeste 9 Noroeste 0 967.6 -- 54
2020-08-30 04:00:00 16.3 5 Noroeste 13 Noroeste 0 967.6 -- 49
2020-08-30 03:00:00 17.4 8 Noroeste 15 Noroeste 0 967.5 -- 45
2020-08-30 02:00:00 18 8 Noroeste 18 Noroeste 0 967.8 -- 42
2020-08-30 01:00:00 19.3 12 Noroeste 22 Norte 0 967.6 -- 39
2020-08-30 00:00:00 19.1 10 Noroeste 18 Noroeste 0 967 -- 40
2020-08-29 23:00:00 19.7 4 Noroeste 13 Norte 0 966.7 -- 38
2020-08-29 22:00:00 21.4 6 Norte 27 Norte 0 966 -- 33
2020-08-29 21:00:00 22.9 15 Norte 34 Norte 0 965.3 -- 29
2020-08-29 20:00:00 25 17 Norte 31 Norte 0 964.8 -- 24
2020-08-29 19:00:00 26 17 Norte 32 Norte 0 964.7 -- 22
2020-08-29 18:00:00 25.3 15 Norte 36 Noroeste 0 964.6 -- 25
2020-08-29 17:00:00 25.2 23 Norte 40 Noroeste 0 964.6 -- 25
2020-08-29 16:00:00 24.8 20 Noroeste 40 Norte 0 964.8 -- 26
2020-08-29 15:00:00 24 21 Norte 39 Noroeste 0 965.2 -- 27
2020-08-29 14:00:00 22.9 24 Norte 42 Norte 0 965.2 -- 29
2020-08-29 13:00:00 21.8 21 Norte 45 Norte 0 965.4 -- 33
2020-08-29 12:00:00 20.1 23 Norte 46 Noroeste 0 965.7 -- 38
2020-08-29 11:00:00 18.7 28 Norte 44 Norte 0 965.5 -- 40
2020-08-29 10:00:00 17.1 22 Norte 43 Norte 0 965.1 -- 45
2020-08-29 09:00:00 15.1 14 Noroeste 39 Noroeste 0 964.5 -- 55
2020-08-29 08:00:00 14.4 23 Noroeste 41 Noroeste 0 963.6 -- 56
2020-08-29 07:00:00 14.9 20 Noroeste 41 Noroeste 0 963.3 -- 53
2020-08-29 06:00:00 15.5 19 Noroeste 36 Noroeste 0 963.2 -- 50
2020-08-29 05:00:00 16.2 17 Noroeste 36 Noroeste 0 963.4 -- 47
2020-08-29 04:00:00 17.1 17 Noroeste 35 Noroeste 0 963.6 -- 46
2020-08-29 03:00:00 18 18 Noroeste 42 Noroeste 0 964 -- 47
2020-08-29 02:00:00 18.9 18 Noroeste 34 Noroeste 0 964.1 -- 46
2020-08-29 01:00:00 19.6 20 Noroeste 34 Noroeste 0 964.2 -- 51
2020-08-29 00:00:00 20.1 23 Noroeste 40 Noroeste 0 964.2 -- 50
2020-08-28 23:00:00 21.2 21 Oeste 39 Oeste 0 964 -- 47
2020-08-28 22:00:00 22.7 20 Oeste 46 Oeste 0 963.6 -- 42
2020-08-28 21:00:00 25.5 21 Oeste 41 Oeste 0 963 -- 32
2020-08-28 20:00:00 28.7 18 Oeste 36 Oeste 0 963 -- 23
2020-08-28 19:00:00 30.8 19 Oeste 36 Oeste 0 963 -- 13
2020-08-28 18:00:00 31 20 Noroeste 34 Noroeste 0 963.4 -- 12
2020-08-28 17:00:00 30.7 22 Oeste 39 Oeste 0 963.9 -- 19
2020-08-28 16:00:00 30.7 15 Noroeste 36 Noroeste 0 964.6 -- 22
2020-08-28 15:00:00 29.4 21 Noroeste 37 Noroeste 0 965.4 -- 26
2020-08-28 14:00:00 28.9 16 Noroeste 36 Oeste 0 966 -- 33
2020-08-28 13:00:00 27.8 20 Noroeste 34 Noroeste 0 966.9 -- 31
2020-08-28 12:00:00 26.1 15 Noroeste 33 Noroeste 0 967.3 -- 47
2020-08-28 11:00:00 23.9 20 Noroeste 36 Noroeste 0 967.4 -- 55
2020-08-28 10:00:00 22.7 18 Noroeste 30 Noroeste 0 967.1 -- 57
2020-08-28 09:00:00 21.7 15 Noroeste 26 Noroeste 0 967.2 -- 61
2020-08-28 08:00:00 20.3 13 Oeste 27 Noroeste 0 967 -- 66
2020-08-28 07:00:00 21.3 9 Oeste 21 Oeste 0 967.1 -- 63
2020-08-28 06:00:00 21.7 13 Oeste 25 Noroeste 0 967.1 -- 62
2020-08-28 05:00:00 22.3 13 Oeste 26 Oeste 0 967.5 -- 62
2020-08-28 04:00:00 23.5 16 Oeste 27 Noroeste 0 967.6 -- 59
2020-08-28 03:00:00 24.5 15 Oeste 27 Oeste 0 968.1 -- 56
2020-08-28 02:00:00 25.7 14 Oeste 28 Oeste 0 968.6 -- 50
2020-08-28 01:00:00 26.7 14 Oeste 35 Oeste 0 968.9 -- 47
2020-08-28 00:00:00 27.9 15 Oeste 28 Oeste 0 969 -- 44
2020-08-27 23:00:00 29.3 15 Oeste 35 Oeste 0 969.1 -- 39
2020-08-27 22:00:00 30.5 19 Oeste 35 Oeste 0 968.7 -- 35
2020-08-27 21:00:00 32.9 19 Oeste 34 Oeste 0 968.3 -- 32
2020-08-27 20:00:00 35.4 14 Noroeste 23 Noroeste 0 968.2 -- 22
2020-08-27 19:00:00 36.6 15 Noroeste 29 Noroeste 0 968.6 -- 20
2020-08-27 18:00:00 36.8 13 Oeste 24 Noroeste 0 969 -- 22
2020-08-27 17:00:00 36.7 9 Noroeste 22 Noroeste 0 969.5 -- 22
2020-08-27 16:00:00 36.5 8 Sudoeste 15 Norte 0 970.2 -- 21
2020-08-27 15:00:00 35.5 5 Sudoeste 25 Noroeste 0 971.1 -- 24
2020-08-27 14:00:00 33.7 9 Norte 20 Noroeste 0 971.9 -- 30
2020-08-27 13:00:00 32.3 9 Norte 21 Norte 0 972.6 -- 35
2020-08-27 12:00:00 30.2 9 Noroeste 17 Noroeste 0 972.9 -- 41
2020-08-27 11:00:00 27.2 8 Noroeste 18 Noroeste 0 972.8 -- 50
2020-08-27 10:00:00 25.4 8 Oeste 15 Oeste 0 972.6 -- 56
2020-08-27 09:00:00 24.2 4 Oeste 7 Noroeste 0 972.4 -- 60
2020-08-27 08:00:00 22.5 5 Oeste 10 Oeste 0 972.3 -- 64
2020-08-27 07:00:00 22.9 7 Oeste 12 Oeste 0 972.1 -- 59
2020-08-27 06:00:00 23.7 6 Oeste 10 Oeste 0 972.1 -- 56
2020-08-27 05:00:00 24.2 7 Oeste 11 Oeste 0 972.4 -- 54
2020-08-27 04:00:00 25.3 5 Oeste 14 Oeste 0 972.6 -- 50
2020-08-27 03:00:00 26.6 8 Oeste 15 Oeste 0 972.8 -- 47
2020-08-27 02:00:00 27.2 8 Oeste 22 Sudoeste 0 973 -- 42
2020-08-27 01:00:00 28.2 12 Oeste 28 Oeste 0 973.1 -- 40
2020-08-27 00:00:00 28.5 13 Oeste 32 Sudoeste 0 973.1 -- 40
2020-08-26 23:00:00 30.4 13 Oeste 35 Sudoeste 0 972.9 -- 30
2020-08-26 22:00:00 30.9 12 Sudoeste 17 Sudoeste 0 972.3 -- 19
2020-08-26 21:00:00 33.3 12 Sudoeste 19 Oeste 0 971.8 -- 15
2020-08-26 20:00:00 37.2 5 Oeste 23 Oeste 0 971.6 -- 12
2020-08-26 19:00:00 38.5 8 Oeste 21 Sudoeste 0 971.8 -- 9
2020-08-26 18:00:00 37.5 10 Oeste 26 Sudoeste 0 971.8 -- 10
2020-08-26 17:00:00 37.4 6 Oeste 28 Sudoeste 0 972.1 -- 10
2020-08-26 16:00:00 36.7 9 Sur 27 Sudoeste 0 972.5 -- 12
2020-08-26 15:00:00 35.4 13 Sudoeste 27 Sudoeste 0 973 -- 13
2020-08-26 14:00:00 34.6 14 Sudoeste 27 Sur 0 973.3 -- 16
2020-08-26 13:00:00 32.4 9 Sudoeste 22 Sudoeste 0 973.7 -- 23
2020-08-26 12:00:00 29.7 11 Oeste 21 Noroeste 0 973.8 -- 31
2020-08-26 11:00:00 27.5 8 Noroeste 17 Noroeste 0 973.3 -- 37
2020-08-26 10:00:00 24.8 3 Norte 5 Norte 0 972.5 -- 42
2020-08-26 09:00:00 21.9 4 Norte 9 Sudoeste 0 972.1 -- 48
2020-08-26 08:00:00 20 2 Sudoeste 8 Sudoeste 0 971.6 -- 48
2020-08-26 07:00:00 21.2 8 Sudoeste 10 Sudoeste 0 971.4 -- 49
2020-08-26 06:00:00 22.4 5 Sudoeste 9 Sudoeste 0 971.3 -- 46
2020-08-26 05:00:00 23.9 7 Oeste 13 Oeste 0 971.4 -- 42
2020-08-26 04:00:00 24.7 8 Oeste 12 Oeste 0 971.4 -- 38
2020-08-26 03:00:00 26.7 7 Oeste 15 Oeste 0 971.4 -- 33
2020-08-26 02:00:00 27 8 Oeste 19 Sudoeste 0 971.4 -- 31
2020-08-26 01:00:00 27.7 13 Oeste 26 Oeste 0 971.3 -- 27
2020-08-26 00:00:00 28.4 4 Norte 24 Oeste 0 971.1 -- 26
2020-08-25 23:00:00 30.2 14 Oeste 26 Noroeste 0 970.8 -- 23
2020-08-25 22:00:00 30.4 13 Sudoeste 21 Oeste 0 969.7 -- 22
2020-08-25 21:00:00 33 9 Sudoeste 18 Sudoeste 0 969 -- 20
2020-08-25 20:00:00 36.3 10 Sudoeste 21 Sur 0 968.7 -- 17
2020-08-25 19:00:00 38.2 9 Oeste 24 Oeste 0 968.8 -- 14
2020-08-25 18:00:00 37.1 11 Oeste 22 Sudoeste 0 968.7 -- 16
2020-08-25 17:00:00 37.4 9 Oeste 24 Sur 0 969 -- 16
2020-08-25 16:00:00 36.6 9 Oeste 24 Sudoeste 0 969.4 -- 19
2020-08-25 15:00:00 35.8 8 Noroeste 24 Oeste 0 970 -- 19
2020-08-25 14:00:00 34.2 10 Noroeste 19 Noroeste 0 970.4 -- 21
2020-08-25 13:00:00 33.5 7 Noroeste 17 Oeste 0 970.7 -- 23
2020-08-25 12:00:00 31.7 7 Norte 11 Norte 0 970.6 -- 26
2020-08-25 11:00:00 28.7 5 Norte 8 Norte 0 970.2 -- 32
2020-08-25 10:00:00 25.8 0 Calma 4 Este 0 969.9 -- 38
2020-08-25 09:00:00 22.1 0 Calma 4 Este 0 969.7 -- 46
2020-08-25 08:00:00 19.4 3 Sudoeste 6 Sudoeste 0 969.1 -- 51
2020-08-25 07:00:00 20.8 2 Sudeste 13 Sudoeste 0 968.7 -- 49
2020-08-25 06:00:00 22.9 10 Sudoeste 17 Sudoeste 0 968.7 -- 46
2020-08-25 05:00:00 23.4 11 Sudoeste 19 Sudoeste 0 968.8 -- 45
2020-08-25 04:00:00 24.5 13 Sudoeste 19 Sudoeste 0 968.7 -- 46
2020-08-25 03:00:00 25.9 5 Sudoeste 18 Oeste 0 968.6 -- 39
2020-08-25 02:00:00 25.8 3 Oeste 26 Oeste 0 968.7 -- 43
2020-08-25 01:00:00 27.5 19 Sudoeste 28 Sudoeste 0 968.6 -- 36
2020-08-25 00:00:00 26.8 0 Calma 13 Sudoeste 0 968.7 -- 21
2020-08-24 23:00:00 28.6 9 Sudoeste 18 Sudoeste 0 968.3 -- 19
2020-08-24 22:00:00 31.7 15 Sudoeste 23 Sudoeste 0 968.1 -- 15
2020-08-24 21:00:00 32.3 13 Sudoeste 18 Sudoeste 0 967.7 -- 15
2020-08-24 20:00:00 36.2 4 Oeste 13 Sur 0 967.7 -- 15
2020-08-24 19:00:00 36.4 5 Sudoeste 19 Oeste 0 967.8 -- 12
2020-08-24 18:00:00 36.5 9 Sudoeste 25 Sudoeste 0 968.1 -- 13
2020-08-24 17:00:00 36.4 8 Nordeste 23 Sudoeste 0 968.4 -- 12
2020-08-24 16:00:00 35.9 8 Noroeste 21 Sudoeste 0 969.1 -- 14
2020-08-24 15:00:00 35.5 7 Sudoeste 19 Sur 0 969.6 -- 14
2020-08-24 14:00:00 34.8 9 Sudeste 24 Sur 0 970 -- 15
2020-08-24 13:00:00 33 11 Este 19 Este 0 970.5 -- 17
2020-08-24 12:00:00 30.5 8 Nordeste 18 Este 0 971.1 -- 22
2020-08-24 11:00:00 26.8 4 Nordeste 8 Este 0 971 -- 26
2020-08-24 10:00:00 23.8 3 Norte 6 Norte 0 970.8 -- 31
2020-08-24 09:00:00 21 2 Oeste 4 Sudoeste 0 970.8 -- 39
2020-08-24 08:00:00 17.9 3 Sudoeste 6 Oeste 0 970.5 -- 45
2020-08-24 07:00:00 18.8 5 Sudoeste 8 Oeste 0 970.2 -- 43
2020-08-24 06:00:00 20.8 6 Sudoeste 10 Sudoeste 0 970.2 -- 38
2020-08-24 05:00:00 21.4 7 Sudoeste 10 Oeste 0 970.4 -- 36
2020-08-24 04:00:00 22 7 Sudoeste 10 Oeste 0 970.3 -- 34
2020-08-24 03:00:00 23.1 6 Oeste 11 Oeste 0 970.7 -- 32
2020-08-24 02:00:00 23.8 6 Oeste 12 Oeste 0 971 -- 29
2020-08-24 01:00:00 24.5 7 Oeste 12 Noroeste 0 971.2 -- 27
2020-08-24 00:00:00 25.3 6 Oeste 10 Oeste 0 971 -- 25
2020-08-23 23:00:00 26.9 6 Oeste 11 Sudoeste 0 971.1 -- 20
2020-08-23 22:00:00 27.5 8 Oeste 10 Oeste 0 970.9 -- 19
2020-08-23 21:00:00 30.5 6 Oeste 19 Noroeste 0 970.8 -- 17
2020-08-23 20:00:00 33.7 11 Noroeste 23 Noroeste 0 970.9 -- 13
2020-08-23 19:00:00 34.8 13 Noroeste 26 Norte 0 971.2 -- 12
2020-08-23 18:00:00 34.4 16 Norte 28 Norte 0 971.5 -- 14
2020-08-23 17:00:00 34.5 11 Norte 27 Noroeste 0 972 -- 14
2020-08-23 16:00:00 33.8 6 Norte 19 Sudeste 0 972.6 -- 14
2020-08-23 15:00:00 33.1 10 Nordeste 21 Norte 0 973.4 -- 14
2020-08-23 14:00:00 31.6 9 Norte 18 Norte 0 974 -- 17
2020-08-23 13:00:00 29.7 6 Nordeste 17 Nordeste 0 974.6 -- 20
2020-08-23 12:00:00 27.1 9 Nordeste 17 Norte 0 975 -- 25
2020-08-23 11:00:00 24.6 9 Norte 15 Norte 0 975 -- 30
2020-08-23 10:00:00 22.2 6 Norte 16 Noroeste 0 974.9 -- 42
2020-08-23 09:00:00 20.2 9 Noroeste 19 Noroeste 0 974.9 -- 45
2020-08-23 08:00:00 19 6 Noroeste 14 Oeste 0 974.7 -- 47
2020-08-23 07:00:00 19.5 7 Oeste 12 Oeste 0 974.2 -- 40
2020-08-23 06:00:00 20.6 4 Oeste 20 Oeste 0 974.3 -- 38
2020-08-23 05:00:00 20.6 9 Oeste 16 Noroeste 0 974.8 -- 35
2020-08-23 04:00:00 21.7 7 Oeste 17 Oeste 0 975.1 -- 31
2020-08-23 03:00:00 21.5 9 Oeste 14 Noroeste 0 975.2 -- 27
2020-08-23 02:00:00 21.5 6 Oeste 13 Oeste 0 975.3 -- 26
2020-08-23 01:00:00 22.7 7 Oeste 13 Oeste 0 975.3 -- 24
2020-08-23 00:00:00 24.4 6 Oeste 14 Noroeste 0 975.4 -- 21
2020-08-22 23:00:00 26.1 6 Oeste 20 Oeste 0 975.1 -- 19
2020-08-22 22:00:00 25.7 10 Oeste 15 Oeste 0 974.5 -- 21
2020-08-22 21:00:00 29.4 5 Sudoeste 16 Norte 0 974 -- 19
2020-08-22 20:00:00 32.7 8 Noroeste 22 Noroeste 0 974 -- 14
2020-08-22 19:00:00 33.8 9 Noroeste 22 Norte 0 974.2 -- 11
2020-08-22 18:00:00 33.2 12 Noroeste 23 Noroeste 0 974.4 -- 15
2020-08-22 17:00:00 32.6 8 Noroeste 27 Norte 0 974.9 -- 16
2020-08-22 16:00:00 31.4 10 Noroeste 24 Norte 0 975.7 -- 19
2020-08-22 15:00:00 30.5 8 Noroeste 22 Noroeste 0 976.3 -- 23
2020-08-22 14:00:00 28.8 9 Norte 22 Norte 0 976.5 -- 28
2020-08-22 13:00:00 27.1 7 Noroeste 19 Noroeste 0 976.8 -- 35
2020-08-22 12:00:00 25.4 10 Noroeste 17 Norte 0 976.8 -- 41
2020-08-22 11:00:00 23 7 Norte 14 Noroeste 0 976.7 -- 50
2020-08-22 10:00:00 20.6 5 Noroeste 10 Noroeste 0 976.4 -- 59
2020-08-22 09:00:00 18.6 3 Sudoeste 9 Oeste 0 976 -- 69
2020-08-22 08:00:00 16.4 6 Oeste 9 Noroeste 0 975.8 -- 75
2020-08-22 07:00:00 16.8 5 Oeste 9 Noroeste 0 975.2 -- 72
2020-08-22 06:00:00 17.1 4 Oeste 8 Oeste 0 974.7 -- 70
2020-08-22 05:00:00 18 5 Oeste 11 Noroeste 0 974.4 -- 67
2020-08-22 04:00:00 19.3 7 Oeste 14 Oeste 0 974.2 -- 62
2020-08-22 03:00:00 19.9 5 Oeste 16 Oeste 0 974.3 -- 58
2020-08-22 02:00:00 20.6 10 Oeste 22 Oeste 0 974.3 -- 56
2020-08-22 01:00:00 21.7 12 Oeste 27 Oeste 0 974 -- 50
2020-08-22 00:00:00 22.9 12 Oeste 23 Oeste 0 973.7 -- 44
2020-08-21 23:00:00 24.2 11 Oeste 20 Oeste 0 973.3 -- 43
2020-08-21 22:00:00 25.2 9 Noroeste 22 Oeste 0 972.8 -- 44
2020-08-21 21:00:00 27 9 Oeste 29 Noroeste 0 972 -- 44
2020-08-21 20:00:00 28.3 13 Noroeste 27 Noroeste 0 971.6 -- 41
2020-08-21 19:00:00 30.2 14 Noroeste 31 Noroeste 0 971.4 -- 42
2020-08-21 18:00:00 29.4 12 Oeste 44 Sudoeste 0 971 -- 45
2020-08-21 17:00:00 30 12 Oeste 26 Oeste 0 971.1 -- 46
2020-08-21 16:00:00 28.4 10 Oeste 26 Sudoeste 0 971.4 -- 53
2020-08-21 15:00:00 27 13 Oeste 25 Noroeste 0 971.8 -- 59
2020-08-21 14:00:00 27 12 Sudoeste 22 Oeste 0 971.5 -- 59
2020-08-21 13:00:00 26.6 11 Oeste 26 Sudoeste 0 971.3 -- 61
2020-08-21 12:00:00 25.7 10 Oeste 21 Sur 0 971 -- 66
2020-08-21 11:00:00 24.7 5 Sudoeste 22 Sudoeste 0 970.6 -- 69
2020-08-21 10:00:00 23.6 8 Sur 23 Sudoeste 0 970.2 -- 73
2020-08-21 09:00:00 22.6 8 Sudoeste 18 Sur 0 969.7 -- 79
2020-08-21 08:00:00 22 9 Sur 14 Sur 0 968.9 -- 81
2020-08-21 07:00:00 21.6 10 Sur 18 Sudoeste 0 968.4 -- 83
2020-08-21 06:00:00 21.1 11 Sudoeste 18 Sur 0 968.1 -- 86
2020-08-21 05:00:00 21.2 4 Sudoeste 9 Sudoeste 0 968 -- 84
2020-08-21 04:00:00 21.8 7 Sudoeste 14 Sudoeste 0 967.7 -- 83
2020-08-21 03:00:00 22.1 6 Oeste 17 Noroeste 0 967.7 -- 82
2020-08-21 02:00:00 23.2 12 Noroeste 21 Noroeste 0 967.6 -- 77
2020-08-21 01:00:00 24.2 13 Oeste 21 Noroeste 0 966.8 -- 69
2020-08-21 00:00:00 24.7 12 Oeste 23 Oeste 0 966.7 -- 66